sensor_id;sensor_type;location;lat;lon;timestamp;temperature;humidity
19224;DHT22;9746;47.180;9.776;2022-09-21T12:05:12;29.60;86.10
19224;DHT22;9746;47.180;9.776;2022-09-21T12:08:00;29.90;87.10
19224;DHT22;9746;47.180;9.776;2022-09-21T12:10:45;29.90;88.30
19224;DHT22;9746;47.180;9.776;2022-09-21T12:13:22;30.10;84.40
19224;DHT22;9746;47.180;9.776;2022-09-21T12:16:01;30.10;82.70
19224;DHT22;9746;47.180;9.776;2022-09-21T12:18:35;30.30;88.00
19224;DHT22;9746;47.180;9.776;2022-09-21T12:21:12;30.60;85.70
19224;DHT22;9746;47.180;9.776;2022-09-21T12:23:47;30.80;85.40
19224;DHT22;9746;47.180;9.776;2022-09-21T12:26:18;31.20;85.90
19224;DHT22;9746;47.180;9.776;2022-09-21T12:28:50;31.80;82.90
19224;DHT22;9746;47.180;9.776;2022-09-21T12:31:23;31.80;81.70
19224;DHT22;9746;47.180;9.776;2022-09-21T12:33:54;31.20;81.70
19224;DHT22;9746;47.180;9.776;2022-09-21T12:36:28;31.20;83.00
19224;DHT22;9746;47.180;9.776;2022-09-21T12:39:04;31.10;81.40
19224;DHT22;9746;47.180;9.776;2022-09-21T12:41:38;31.30;81.60
19224;DHT22;9746;47.180;9.776;2022-09-21T12:44:16;31.80;81.90
19224;DHT22;9746;47.180;9.776;2022-09-21T12:46:49;31.80;79.20
19224;DHT22;9746;47.180;9.776;2022-09-21T12:49:22;31.60;79.20
19224;DHT22;9746;47.180;9.776;2022-09-21T12:51:56;31.50;78.50
19224;DHT22;9746;47.180;9.776;2022-09-21T12:54:33;31.40;78.30
19224;DHT22;9746;47.180;9.776;2022-09-21T12:57:09;31.80;79.10
19224;DHT22;9746;47.180;9.776;2022-09-21T12:59:44;31.60;77.50
19224;DHT22;9746;47.180;9.776;2022-09-21T13:02:20;31.60;77.20
19224;DHT22;9746;47.180;9.776;2022-09-21T13:04:57;31.70;76.80
19224;DHT22;9746;47.180;9.776;2022-09-21T13:07:47;32.20;75.50
19224;DHT22;9746;47.180;9.776;2022-09-21T13:10:21;32.30;74.20
19224;DHT22;9746;47.180;9.776;2022-09-21T13:12:53;32.50;73.60
19224;DHT22;9746;47.180;9.776;2022-09-21T13:15:26;32.40;72.60
19224;DHT22;9746;47.180;9.776;2022-09-21T13:17:58;32.30;73.10
19224;DHT22;9746;47.180;9.776;2022-09-21T13:20:32;32.80;74.60
19224;DHT22;9746;47.180;9.776;2022-09-21T13:23:02;33.40;71.40
19224;DHT22;9746;47.180;9.776;2022-09-21T13:25:31;33.80;70.10
19224;DHT22;9746;47.180;9.776;2022-09-21T13:28:05;33.00;69.00
19224;DHT22;9746;47.180;9.776;2022-09-21T13:30:46;31.60;71.00
19224;DHT22;9746;47.180;9.776;2022-09-21T13:33:31;32.00;71.30
19224;DHT22;9746;47.180;9.776;2022-09-21T13:36:33;31.60;70.00
19224;DHT22;9746;47.180;9.776;2022-09-21T13:39:15;31.80;70.90
19224;DHT22;9746;47.180;9.776;2022-09-21T13:41:44;31.30;70.50
19224;DHT22;9746;47.180;9.776;2022-09-21T13:44:20;31.50;71.70
19224;DHT22;9746;47.180;9.776;2022-09-21T13:46:55;32.30;71.00
19224;DHT22;9746;47.180;9.776;2022-09-21T13:49:42;32.30;69.90
19224;DHT22;9746;47.180;9.776;2022-09-21T13:52:28;32.70;68.20
19224;DHT22;9746;47.180;9.776;2022-09-21T13:55:02;32.30;69.00
19224;DHT22;9746;47.180;9.776;2022-09-21T13:57:37;31.90;68.90
19224;DHT22;9746;47.180;9.776;2022-09-21T14:03:18;33.10;69.30
19224;DHT22;9746;47.180;9.776;2022-09-21T14:05:49;33.30;67.20
19224;DHT22;9746;47.180;9.776;2022-09-21T14:08:21;33.80;67.50
19224;DHT22;9746;47.180;9.776;2022-09-21T14:10:53;33.70;67.10
19224;DHT22;9746;47.180;9.776;2022-09-21T14:13:26;33.50;66.70
19224;DHT22;9746;47.180;9.776;2022-09-21T14:22:34;31.90;67.60
19224;DHT22;9746;47.180;9.776;2022-09-21T14:25:22;32.30;66.60
19224;DHT22;9746;47.180;9.776;2022-09-21T14:27:52;31.50;67.80
19224;DHT22;9746;47.180;9.776;2022-09-21T14:30:21;31.70;68.80
19224;DHT22;9746;47.180;9.776;2022-09-21T14:32:59;32.10;67.20
19224;DHT22;9746;47.180;9.776;2022-09-21T14:35:31;32.50;66.90
19224;DHT22;9746;47.180;9.776;2022-09-21T14:38:04;31.70;66.80
19224;DHT22;9746;47.180;9.776;2022-09-21T14:40:34;31.80;67.70
19224;DHT22;9746;47.180;9.776;2022-09-21T14:43:09;31.40;67.50
19224;DHT22;9746;47.180;9.776;2022-09-21T14:45:48;30.50;68.10
19224;DHT22;9746;47.180;9.776;2022-09-21T14:48:25;31.10;69.40
19224;DHT22;9746;47.180;9.776;2022-09-21T14:51:00;31.20;69.00
19224;DHT22;9746;47.180;9.776;2022-09-21T14:53:53;31.70;68.60
19224;DHT22;9746;47.180;9.776;2022-09-21T14:56:37;31.20;67.40
19224;DHT22;9746;47.180;9.776;2022-09-21T14:59:18;31.90;68.10
19224;DHT22;9746;47.180;9.776;2022-09-21T15:01:56;31.60;66.70
19224;DHT22;9746;47.180;9.776;2022-09-21T15:04:52;31.30;67.70
19224;DHT22;9746;47.180;9.776;2022-09-21T15:07:33;30.90;67.80
19224;DHT22;9746;47.180;9.776;2022-09-21T15:10:24;30.90;68.00
19224;DHT22;9746;47.180;9.776;2022-09-21T15:16:16;31.70;67.00
19224;DHT22;9746;47.180;9.776;2022-09-21T15:18:47;32.50;67.60
19224;DHT22;9746;47.180;9.776;2022-09-21T15:21:26;32.90;66.10
19224;DHT22;9746;47.180;9.776;2022-09-21T15:23:54;32.30;66.20
19224;DHT22;9746;47.180;9.776;2022-09-21T15:26:28;31.40;66.60
19224;DHT22;9746;47.180;9.776;2022-09-21T15:28:58;31.70;66.70
19224;DHT22;9746;47.180;9.776;2022-09-21T15:31:34;31.80;66.00
19224;DHT22;9746;47.180;9.776;2022-09-21T15:34:03;31.50;67.80
19224;DHT22;9746;47.180;9.776;2022-09-21T15:36:37;30.90;67.40
19224;DHT22;9746;47.180;9.776;2022-09-21T15:39:06;30.70;67.50
19224;DHT22;9746;47.180;9.776;2022-09-21T15:41:46;30.10;69.10
19224;DHT22;9746;47.180;9.776;2022-09-21T15:44:16;28.20;70.00
19224;DHT22;9746;47.180;9.776;2022-09-21T15:47:03;27.00;71.90
19224;DHT22;9746;47.180;9.776;2022-09-21T15:49:34;25.30;74.20
19224;DHT22;9746;47.180;9.776;2022-09-21T15:52:09;24.10;77.30
19224;DHT22;9746;47.180;9.776;2022-09-21T15:54:41;23.30;78.80
19224;DHT22;9746;47.180;9.776;2022-09-21T15:57:24;22.70;80.10
19224;DHT22;9746;47.180;9.776;2022-09-21T15:59:56;21.90;81.80
19224;DHT22;9746;47.180;9.776;2022-09-21T16:02:30;21.70;83.70
19224;DHT22;9746;47.180;9.776;2022-09-21T16:04:59;21.30;84.10
19224;DHT22;9746;47.180;9.776;2022-09-21T16:07:34;20.80;85.30
19224;DHT22;9746;47.180;9.776;2022-09-21T16:10:35;20.60;86.40
19224;DHT22;9746;47.180;9.776;2022-09-21T16:13:11;20.10;87.50
19224;DHT22;9746;47.180;9.776;2022-09-21T16:16:01;19.90;88.30
19224;DHT22;9746;47.180;9.776;2022-09-21T16:18:39;19.70;89.70
19224;DHT22;9746;47.180;9.776;2022-09-21T16:21:13;19.50;89.50
19224;DHT22;9746;47.180;9.776;2022-09-21T16:23:45;18.90;90.20
19224;DHT22;9746;47.180;9.776;2022-09-21T16:26:19;18.80;90.70
19224;DHT22;9746;47.180;9.776;2022-09-21T16:28:48;18.70;90.90
19224;DHT22;9746;47.180;9.776;2022-09-21T16:31:28;18.50;91.30
19224;DHT22;9746;47.180;9.776;2022-09-21T16:34:04;18.20;92.00
19224;DHT22;9746;47.180;9.776;2022-09-21T16:36:40;18.00;92.10
19224;DHT22;9746;47.180;9.776;2022-09-21T16:39:10;17.90;92.60
19224;DHT22;9746;47.180;9.776;2022-09-21T16:41:46;17.80;92.50
19224;DHT22;9746;47.180;9.776;2022-09-21T16:44:16;17.80;92.80
19224;DHT22;9746;47.180;9.776;2022-09-21T16:46:51;17.80;93.20
19224;DHT22;9746;47.180;9.776;2022-09-21T16:49:21;17.80;93.60
19224;DHT22;9746;47.180;9.776;2022-09-21T16:51:52;17.70;94.70
19224;DHT22;9746;47.180;9.776;2022-09-21T16:54:22;17.60;95.40
19224;DHT22;9746;47.180;9.776;2022-09-21T16:56:54;17.40;95.60
19224;DHT22;9746;47.180;9.776;2022-09-21T16:59:22;17.30;96.10
19224;DHT22;9746;47.180;9.776;2022-09-21T17:01:52;17.10;96.80
19224;DHT22;9746;47.180;9.776;2022-09-21T17:04:22;16.90;97.80
19224;DHT22;9746;47.180;9.776;2022-09-21T17:06:50;16.70;97.50
19224;DHT22;9746;47.180;9.776;2022-09-21T17:09:23;16.60;97.90
19224;DHT22;9746;47.180;9.776;2022-09-21T17:11:53;16.60;97.70
19224;DHT22;9746;47.180;9.776;2022-09-21T17:14:20;16.50;97.80
19224;DHT22;9746;47.180;9.776;2022-09-21T17:16:50;16.30;99.60
19224;DHT22;9746;47.180;9.776;2022-09-21T17:19:21;16.10;99.90
19224;DHT22;9746;47.180;9.776;2022-09-21T17:21:48;15.80;99.90
19224;DHT22;9746;47.180;9.776;2022-09-21T17:24:16;15.60;99.90
19224;DHT22;9746;47.180;9.776;2022-09-21T17:26:44;15.50;99.90
19224;DHT22;9746;47.180;9.776;2022-09-21T17:29:20;15.30;99.90
19224;DHT22;9746;47.180;9.776;2022-09-21T17:31:51;15.20;99.90
19224;DHT22;9746;47.180;9.776;2022-09-21T17:34:23;15.10;99.90
19224;DHT22;9746;47.180;9.776;2022-09-21T17:36:52;15.00;99.90
19224;DHT22;9746;47.180;9.776;2022-09-21T17:39:21;14.80;99.90
19224;DHT22;9746;47.180;9.776;2022-09-21T17:41:52;14.60;99.90
19224;DHT22;9746;47.180;9.776;2022-09-21T17:44:46;14.40;99.90
19224;DHT22;9746;47.180;9.776;2022-09-21T17:47:22;14.30;99.90
19224;DHT22;9746;47.180;9.776;2022-09-21T17:49:57;14.20;99.90
19224;DHT22;9746;47.180;9.776;2022-09-21T17:52:26;14.10;99.90
19224;DHT22;9746;47.180;9.776;2022-09-21T17:55:12;14.00;99.90
19224;DHT22;9746;47.180;9.776;2022-09-21T17:57:49;13.90;99.90
19224;DHT22;9746;47.180;9.776;2022-09-21T18:00:31;13.80;99.90
19224;DHT22;9746;47.180;9.776;2022-09-21T18:03:02;13.60;99.90
19224;DHT22;9746;47.180;9.776;2022-09-21T18:05:31;13.60;99.90
19224;DHT22;9746;47.180;9.776;2022-09-21T18:07:59;13.60;99.90
19224;DHT22;9746;47.180;9.776;2022-09-21T18:10:27;13.40;99.90
19224;DHT22;9746;47.180;9.776;2022-09-21T18:13:23;13.30;99.90
19224;DHT22;9746;47.180;9.776;2022-09-21T18:16:04;13.20;99.90
19224;DHT22;9746;47.180;9.776;2022-09-21T18:18:43;13.20;99.90
19224;DHT22;9746;47.180;9.776;2022-09-21T18:21:18;13.10;99.90
19224;DHT22;9746;47.180;9.776;2022-09-21T18:24:08;13.10;99.90
19224;DHT22;9746;47.180;9.776;2022-09-21T18:26:40;12.90;99.90
19224;DHT22;9746;47.180;9.776;2022-09-21T18:29:24;12.70;99.90
19224;DHT22;9746;47.180;9.776;2022-09-21T18:32:08;12.60;99.90
19224;DHT22;9746;47.180;9.776;2022-09-21T18:37:54;12.60;99.90
19224;DHT22;9746;47.180;9.776;2022-09-21T18:40:29;12.40;99.90
19224;DHT22;9746;47.180;9.776;2022-09-21T18:43:09;12.30;99.90
19224;DHT22;9746;47.180;9.776;2022-09-21T18:45:42;12.20;99.90
19224;DHT22;9746;47.180;9.776;2022-09-21T18:48:19;12.20;99.90
19224;DHT22;9746;47.180;9.776;2022-09-21T18:50:56;12.20;99.90
19224;DHT22;9746;47.180;9.776;2022-09-21T18:53:35;12.10;99.90
19224;DHT22;9746;47.180;9.776;2022-09-21T18:56:07;12.00;99.90
19224;DHT22;9746;47.180;9.776;2022-09-21T18:58:37;12.00;99.90
19224;DHT22;9746;47.180;9.776;2022-09-21T19:01:05;12.00;99.90
19224;DHT22;9746;47.180;9.776;2022-09-21T19:03:34;12.00;99.90
19224;DHT22;9746;47.180;9.776;2022-09-21T19:06:19;12.10;99.90
19224;DHT22;9746;47.180;9.776;2022-09-21T19:08:56;12.20;99.90
19224;DHT22;9746;47.180;9.776;2022-09-21T19:11:30;12.20;99.90
19224;DHT22;9746;47.180;9.776;2022-09-21T19:14:06;12.20;99.90
19224;DHT22;9746;47.180;9.776;2022-09-21T19:16:44;12.20;99.90
19224;DHT22;9746;47.180;9.776;2022-09-21T19:19:23;12.20;99.90
19224;DHT22;9746;47.180;9.776;2022-09-21T19:21:59;12.20;99.90
19224;DHT22;9746;47.180;9.776;2022-09-21T19:24:35;12.20;99.90
19224;DHT22;9746;47.180;9.776;2022-09-21T19:27:14;12.20;99.90
19224;DHT22;9746;47.180;9.776;2022-09-21T19:29:54;12.10;99.90
19224;DHT22;9746;47.180;9.776;2022-09-21T19:32:34;12.10;99.90
19224;DHT22;9746;47.180;9.776;2022-09-21T19:35:15;12.10;99.90
19224;DHT22;9746;47.180;9.776;2022-09-21T19:37:44;12.00;99.90
19224;DHT22;9746;47.180;9.776;2022-09-21T19:40:15;11.90;99.90
19224;DHT22;9746;47.180;9.776;2022-09-21T19:43:06;11.80;99.90
